sensor_id;sensor_type;location;lat;lon;timestamp;temperature;humidity
19292;DHT22;9779;51.756;7.450;2022-08-02T00:01:37;18.00;99.90
19292;DHT22;9779;51.756;7.450;2022-08-02T00:04:03;18.00;99.90
19292;DHT22;9779;51.756;7.450;2022-08-02T00:06:29;18.00;99.90
19292;DHT22;9779;51.756;7.450;2022-08-02T00:08:54;17.90;99.90
19292;DHT22;9779;51.756;7.450;2022-08-02T00:11:20;17.90;99.90
19292;DHT22;9779;51.756;7.450;2022-08-02T00:13:46;17.90;99.90
19292;DHT22;9779;51.756;7.450;2022-08-02T00:16:12;17.80;99.90
19292;DHT22;9779;51.756;7.450;2022-08-02T00:18:37;17.80;99.90
19292;DHT22;9779;51.756;7.450;2022-08-02T00:21:03;17.80;99.90
19292;DHT22;9779;51.756;7.450;2022-08-02T00:23:28;17.80;99.90
19292;DHT22;9779;51.756;7.450;2022-08-02T00:25:54;17.70;99.90
19292;DHT22;9779;51.756;7.450;2022-08-02T00:28:20;17.70;99.90
19292;DHT22;9779;51.756;7.450;2022-08-02T00:30:45;17.60;99.90
19292;DHT22;9779;51.756;7.450;2022-08-02T00:33:11;17.60;99.90
19292;DHT22;9779;51.756;7.450;2022-08-02T00:35:36;17.60;99.90
19292;DHT22;9779;51.756;7.450;2022-08-02T00:38:03;17.50;99.90
19292;DHT22;9779;51.756;7.450;2022-08-02T00:40:29;17.50;99.90
19292;DHT22;9779;51.756;7.450;2022-08-02T00:43:03;17.50;99.90
19292;DHT22;9779;51.756;7.450;2022-08-02T00:45:31;17.40;99.90
19292;DHT22;9779;51.756;7.450;2022-08-02T00:47:57;17.40;99.90
19292;DHT22;9779;51.756;7.450;2022-08-02T00:50:23;17.30;99.90
19292;DHT22;9779;51.756;7.450;2022-08-02T00:52:49;17.30;99.90
19292;DHT22;9779;51.756;7.450;2022-08-02T00:55:14;17.30;99.90
19292;DHT22;9779;51.756;7.450;2022-08-02T00:57:40;17.20;99.90
19292;DHT22;9779;51.756;7.450;2022-08-02T01:00:06;17.20;99.90
19292;DHT22;9779;51.756;7.450;2022-08-02T01:02:32;17.20;99.90
19292;DHT22;9779;51.756;7.450;2022-08-02T01:04:58;17.10;99.90
19292;DHT22;9779;51.756;7.450;2022-08-02T01:07:23;17.10;99.90
19292;DHT22;9779;51.756;7.450;2022-08-02T01:09:49;17.10;99.90
19292;DHT22;9779;51.756;7.450;2022-08-02T01:12:15;17.00;99.90
19292;DHT22;9779;51.756;7.450;2022-08-02T01:14:46;17.00;99.90
19292;DHT22;9779;51.756;7.450;2022-08-02T01:20:22;16.90;99.90
19292;DHT22;9779;51.756;7.450;2022-08-02T01:28:48;16.80;99.90
19292;DHT22;9779;51.756;7.450;2022-08-02T01:31:23;16.80;99.90
19292;DHT22;9779;51.756;7.450;2022-08-02T01:37:01;16.80;99.90
19292;DHT22;9779;51.756;7.450;2022-08-02T01:39:30;16.70;99.90
19292;DHT22;9779;51.756;7.450;2022-08-02T01:41:59;16.70;99.90
19292;DHT22;9779;51.756;7.450;2022-08-02T01:44:26;16.70;99.90
19292;DHT22;9779;51.756;7.450;2022-08-02T01:46:56;16.70;99.90
19292;DHT22;9779;51.756;7.450;2022-08-02T01:49:23;16.60;99.90
19292;DHT22;9779;51.756;7.450;2022-08-02T01:51:52;16.60;99.90
19292;DHT22;9779;51.756;7.450;2022-08-02T01:54:37;16.60;99.90
19292;DHT22;9779;51.756;7.450;2022-08-02T01:57:05;16.50;99.90
19292;DHT22;9779;51.756;7.450;2022-08-02T01:59:31;16.50;99.90
19292;DHT22;9779;51.756;7.450;2022-08-02T02:01:58;16.40;99.90
19292;DHT22;9779;51.756;7.450;2022-08-02T02:04:27;16.40;99.90
19292;DHT22;9779;51.756;7.450;2022-08-02T02:06:55;16.40;99.90
19292;DHT22;9779;51.756;7.450;2022-08-02T02:09:25;16.40;99.90
19292;DHT22;9779;51.756;7.450;2022-08-02T02:11:52;16.30;99.90
19292;DHT22;9779;51.756;7.450;2022-08-02T02:14:19;16.30;99.90
19292;DHT22;9779;51.756;7.450;2022-08-02T02:16:47;16.20;99.90
19292;DHT22;9779;51.756;7.450;2022-08-02T02:19:15;16.20;99.90
19292;DHT22;9779;51.756;7.450;2022-08-02T02:21:43;16.20;99.90
19292;DHT22;9779;51.756;7.450;2022-08-02T02:24:09;16.20;99.90
19292;DHT22;9779;51.756;7.450;2022-08-02T02:26:36;16.10;99.90
19292;DHT22;9779;51.756;7.450;2022-08-02T02:29:03;16.10;99.90
19292;DHT22;9779;51.756;7.450;2022-08-02T02:31:37;16.00;99.90
19292;DHT22;9779;51.756;7.450;2022-08-02T02:44:10;15.90;99.90
19292;DHT22;9779;51.756;7.450;2022-08-02T02:46:38;15.90;99.90
19292;DHT22;9779;51.756;7.450;2022-08-02T02:51:34;15.80;99.90
19292;DHT22;9779;51.756;7.450;2022-08-02T02:54:01;15.90;99.90
19292;DHT22;9779;51.756;7.450;2022-08-02T02:56:27;15.80;99.90
19292;DHT22;9779;51.756;7.450;2022-08-02T03:01:21;16.20;99.90
19292;DHT22;9779;51.756;7.450;2022-08-02T03:03:59;15.70;99.90
19292;DHT22;9779;51.756;7.450;2022-08-02T03:06:25;15.60;99.90
19292;DHT22;9779;51.756;7.450;2022-08-02T03:08:51;15.60;99.90
19292;DHT22;9779;51.756;7.450;2022-08-02T03:11:17;15.50;99.90
19292;DHT22;9779;51.756;7.450;2022-08-02T03:13:43;15.50;99.90
19292;DHT22;9779;51.756;7.450;2022-08-02T03:16:10;15.50;99.90
19292;DHT22;9779;51.756;7.450;2022-08-02T03:18:38;15.50;99.90
19292;DHT22;9779;51.756;7.450;2022-08-02T03:21:09;15.50;99.90
19292;DHT22;9779;51.756;7.450;2022-08-02T03:23:39;15.50;99.90
19292;DHT22;9779;51.756;7.450;2022-08-02T03:26:05;15.40;99.90
19292;DHT22;9779;51.756;7.450;2022-08-02T03:28:31;15.40;99.90
19292;DHT22;9779;51.756;7.450;2022-08-02T03:30:57;15.40;99.90
19292;DHT22;9779;51.756;7.450;2022-08-02T03:33:24;15.30;99.90
19292;DHT22;9779;51.756;7.450;2022-08-02T03:35:56;15.30;99.90
19292;DHT22;9779;51.756;7.450;2022-08-02T03:38:23;15.30;99.90
19292;DHT22;9779;51.756;7.450;2022-08-02T03:40:50;15.30;99.90
19292;DHT22;9779;51.756;7.450;2022-08-02T03:43:16;15.20;99.90
19292;DHT22;9779;51.756;7.450;2022-08-02T03:45:43;15.20;99.90
19292;DHT22;9779;51.756;7.450;2022-08-02T03:48:12;15.20;99.90
19292;DHT22;9779;51.756;7.450;2022-08-02T03:50:39;15.10;99.90
19292;DHT22;9779;51.756;7.450;2022-08-02T03:53:05;15.10;99.90
19292;DHT22;9779;51.756;7.450;2022-08-02T03:55:33;15.10;99.90
19292;DHT22;9779;51.756;7.450;2022-08-02T03:57:59;15.10;99.90
19292;DHT22;9779;51.756;7.450;2022-08-02T04:00:25;15.10;99.90
19292;DHT22;9779;51.756;7.450;2022-08-02T04:02:51;15.00;99.90
19292;DHT22;9779;51.756;7.450;2022-08-02T04:05:16;15.00;99.90
19292;DHT22;9779;51.756;7.450;2022-08-02T04:07:42;15.00;99.90
19292;DHT22;9779;51.756;7.450;2022-08-02T04:10:09;14.90;99.90
19292;DHT22;9779;51.756;7.450;2022-08-02T04:12:35;14.80;99.90
19292;DHT22;9779;51.756;7.450;2022-08-02T04:15:02;14.90;99.90
19292;DHT22;9779;51.756;7.450;2022-08-02T04:17:31;14.80;99.90
19292;DHT22;9779;51.756;7.450;2022-08-02T04:20:04;14.80;99.90
19292;DHT22;9779;51.756;7.450;2022-08-02T04:22:46;14.80;99.90
19292;DHT22;9779;51.756;7.450;2022-08-02T04:25:12;14.80;99.90
19292;DHT22;9779;51.756;7.450;2022-08-02T04:27:39;14.80;99.90
19292;DHT22;9779;51.756;7.450;2022-08-02T04:30:06;14.80;99.90
19292;DHT22;9779;51.756;7.450;2022-08-02T04:32:32;14.80;99.90
19292;DHT22;9779;51.756;7.450;2022-08-02T04:34:59;14.80;99.90
19292;DHT22;9779;51.756;7.450;2022-08-02T04:37:25;14.80;99.90
19292;DHT22;9779;51.756;7.450;2022-08-02T04:39:51;14.80;99.90
19292;DHT22;9779;51.756;7.450;2022-08-02T04:42:21;14.80;99.90
19292;DHT22;9779;51.756;7.450;2022-08-02T04:44:47;14.80;99.90
19292;DHT22;9779;51.756;7.450;2022-08-02T04:47:14;14.80;99.90
19292;DHT22;9779;51.756;7.450;2022-08-02T04:49:39;14.80;99.90
19292;DHT22;9779;51.756;7.450;2022-08-02T04:52:05;14.80;99.90
19292;DHT22;9779;51.756;7.450;2022-08-02T04:54:31;14.70;99.90
19292;DHT22;9779;51.756;7.450;2022-08-02T04:56:56;14.70;99.90
19292;DHT22;9779;51.756;7.450;2022-08-02T04:59:22;14.70;99.90
19292;DHT22;9779;51.756;7.450;2022-08-02T05:01:47;14.70;99.90
19292;DHT22;9779;51.756;7.450;2022-08-02T05:04:13;14.70;99.90
19292;DHT22;9779;51.756;7.450;2022-08-02T05:06:38;14.80;99.90
19292;DHT22;9779;51.756;7.450;2022-08-02T05:09:04;14.80;99.90
19292;DHT22;9779;51.756;7.450;2022-08-02T05:11:30;14.80;99.90
19292;DHT22;9779;51.756;7.450;2022-08-02T05:13:56;14.80;99.90
19292;DHT22;9779;51.756;7.450;2022-08-02T05:16:21;14.80;99.90
19292;DHT22;9779;51.756;7.450;2022-08-02T05:18:47;14.80;99.90
19292;DHT22;9779;51.756;7.450;2022-08-02T05:21:12;14.80;99.90
19292;DHT22;9779;51.756;7.450;2022-08-02T05:23:38;14.80;99.90
19292;DHT22;9779;51.756;7.450;2022-08-02T05:26:04;14.90;99.90
19292;DHT22;9779;51.756;7.450;2022-08-02T05:28:29;14.90;99.90
19292;DHT22;9779;51.756;7.450;2022-08-02T05:30:55;14.90;99.90
19292;DHT22;9779;51.756;7.450;2022-08-02T05:33:20;15.00;99.90
19292;DHT22;9779;51.756;7.450;2022-08-02T05:35:46;14.90;99.90
19292;DHT22;9779;51.756;7.450;2022-08-02T05:38:11;14.90;99.90
19292;DHT22;9779;51.756;7.450;2022-08-02T05:40:37;15.00;99.90
19292;DHT22;9779;51.756;7.450;2022-08-02T05:43:10;15.00;99.90
19292;DHT22;9779;51.756;7.450;2022-08-02T05:45:36;15.00;99.90
19292;DHT22;9779;51.756;7.450;2022-08-02T05:48:02;15.00;99.90
19292;DHT22;9779;51.756;7.450;2022-08-02T05:50:28;15.00;99.90
19292;DHT22;9779;51.756;7.450;2022-08-02T05:53:04;15.10;99.90
19292;DHT22;9779;51.756;7.450;2022-08-02T05:55:46;15.10;99.90
19292;DHT22;9779;51.756;7.450;2022-08-02T05:58:26;15.10;99.90
19292;DHT22;9779;51.756;7.450;2022-08-02T06:00:55;15.20;99.90
19292;DHT22;9779;51.756;7.450;2022-08-02T06:03:28;15.30;99.90
19292;DHT22;9779;51.756;7.450;2022-08-02T06:06:05;15.30;99.90
19292;DHT22;9779;51.756;7.450;2022-08-02T06:08:44;15.30;99.90
19292;DHT22;9779;51.756;7.450;2022-08-02T06:11:12;15.40;99.90
19292;DHT22;9779;51.756;7.450;2022-08-02T06:13:42;15.40;99.90
19292;DHT22;9779;51.756;7.450;2022-08-02T06:16:10;15.40;99.90
19292;DHT22;9779;51.756;7.450;2022-08-02T06:18:35;15.50;99.90
19292;DHT22;9779;51.756;7.450;2022-08-02T06:21:03;15.50;99.90
19292;DHT22;9779;51.756;7.450;2022-08-02T06:23:30;15.50;99.90
19292;DHT22;9779;51.756;7.450;2022-08-02T06:25:57;15.60;99.90
19292;DHT22;9779;51.756;7.450;2022-08-02T06:28:23;15.70;99.90
19292;DHT22;9779;51.756;7.450;2022-08-02T06:30:50;15.70;99.90
19292;DHT22;9779;51.756;7.450;2022-08-02T06:33:15;15.80;99.90
19292;DHT22;9779;51.756;7.450;2022-08-02T06:36:03;15.80;99.90
19292;DHT22;9779;51.756;7.450;2022-08-02T06:38:39;16.00;99.90
19292;DHT22;9779;51.756;7.450;2022-08-02T06:41:08;16.00;99.90
19292;DHT22;9779;51.756;7.450;2022-08-02T06:46:05;16.10;99.90
19292;DHT22;9779;51.756;7.450;2022-08-02T06:48:31;16.20;99.90
19292;DHT22;9779;51.756;7.450;2022-08-02T06:51:02;16.30;99.90
19292;DHT22;9779;51.756;7.450;2022-08-02T06:53:28;16.30;99.90
19292;DHT22;9779;51.756;7.450;2022-08-02T06:55:54;16.30;99.90
19292;DHT22;9779;51.756;7.450;2022-08-02T06:58:20;16.40;99.90
19292;DHT22;9779;51.756;7.450;2022-08-02T07:00:45;16.50;99.90
19292;DHT22;9779;51.756;7.450;2022-08-02T07:03:11;16.60;99.90
19292;DHT22;9779;51.756;7.450;2022-08-02T07:05:37;16.70;99.90
19292;DHT22;9779;51.756;7.450;2022-08-02T07:08:03;16.80;99.90
19292;DHT22;9779;51.756;7.450;2022-08-02T07:10:29;16.90;99.90
19292;DHT22;9779;51.756;7.450;2022-08-02T07:12:54;16.90;99.90
19292;DHT22;9779;51.756;7.450;2022-08-02T07:15:20;16.90;99.90
19292;DHT22;9779;51.756;7.450;2022-08-02T07:17:46;17.00;99.90
19292;DHT22;9779;51.756;7.450;2022-08-02T07:20:12;17.10;99.90
19292;DHT22;9779;51.756;7.450;2022-08-02T07:22:39;17.20;99.90
19292;DHT22;9779;51.756;7.450;2022-08-02T07:25:05;17.20;99.90
19292;DHT22;9779;51.756;7.450;2022-08-02T07:27:31;17.30;99.90
19292;DHT22;9779;51.756;7.450;2022-08-02T07:29:57;17.40;99.90
19292;DHT22;9779;51.756;7.450;2022-08-02T07:32:25;17.50;99.90
19292;DHT22;9779;51.756;7.450;2022-08-02T07:34:51;17.60;99.90
19292;DHT22;9779;51.756;7.450;2022-08-02T07:37:17;17.70;99.90
19292;DHT22;9779;51.756;7.450;2022-08-02T07:39:43;17.80;99.90
19292;DHT22;9779;51.756;7.450;2022-08-02T07:42:08;17.90;99.90
19292;DHT22;9779;51.756;7.450;2022-08-02T07:44:34;18.00;99.90
19292;DHT22;9779;51.756;7.450;2022-08-02T07:47:00;18.20;99.90
19292;DHT22;9779;51.756;7.450;2022-08-02T07:49:27;18.20;99.90
19292;DHT22;9779;51.756;7.450;2022-08-02T07:51:53;18.30;99.90
19292;DHT22;9779;51.756;7.450;2022-08-02T07:54:19;18.40;99.90
19292;DHT22;9779;51.756;7.450;2022-08-02T07:56:45;18.60;99.90
19292;DHT22;9779;51.756;7.450;2022-08-02T07:59:10;18.70;99.90
19292;DHT22;9779;51.756;7.450;2022-08-02T08:01:36;18.80;99.90
19292;DHT22;9779;51.756;7.450;2022-08-02T08:04:02;18.80;99.90
19292;DHT22;9779;51.756;7.450;2022-08-02T08:06:28;19.00;99.90
19292;DHT22;9779;51.756;7.450;2022-08-02T08:08:55;19.00;99.90
19292;DHT22;9779;51.756;7.450;2022-08-02T08:11:21;19.20;99.90
19292;DHT22;9779;51.756;7.450;2022-08-02T08:13:46;19.30;99.90
19292;DHT22;9779;51.756;7.450;2022-08-02T08:16:12;19.50;99.90
19292;DHT22;9779;51.756;7.450;2022-08-02T08:18:38;19.60;99.90
19292;DHT22;9779;51.756;7.450;2022-08-02T08:21:03;19.70;99.90
19292;DHT22;9779;51.756;7.450;2022-08-02T08:23:29;19.80;99.90
19292;DHT22;9779;51.756;7.450;2022-08-02T08:25:54;19.90;99.90
19292;DHT22;9779;51.756;7.450;2022-08-02T08:28:20;20.00;99.90
19292;DHT22;9779;51.756;7.450;2022-08-02T08:30:45;20.00;99.90
19292;DHT22;9779;51.756;7.450;2022-08-02T08:33:14;20.10;99.90
19292;DHT22;9779;51.756;7.450;2022-08-02T08:35:40;20.30;99.90
19292;DHT22;9779;51.756;7.450;2022-08-02T08:38:06;20.40;99.90
19292;DHT22;9779;51.756;7.450;2022-08-02T08:40:31;20.50;99.90
19292;DHT22;9779;51.756;7.450;2022-08-02T08:42:57;20.60;99.90
19292;DHT22;9779;51.756;7.450;2022-08-02T08:45:22;20.70;99.90
19292;DHT22;9779;51.756;7.450;2022-08-02T08:47:59;20.80;99.90
19292;DHT22;9779;51.756;7.450;2022-08-02T08:50:25;21.00;99.90
19292;DHT22;9779;51.756;7.450;2022-08-02T08:53:01;21.10;99.90
19292;DHT22;9779;51.756;7.450;2022-08-02T08:55:28;21.10;99.90
19292;DHT22;9779;51.756;7.450;2022-08-02T08:57:57;21.20;99.90
19292;DHT22;9779;51.756;7.450;2022-08-02T09:00:23;21.30;99.90
19292;DHT22;9779;51.756;7.450;2022-08-02T09:02:49;21.50;99.90
19292;DHT22;9779;51.756;7.450;2022-08-02T09:05:16;21.60;99.90
19292;DHT22;9779;51.756;7.450;2022-08-02T09:07:42;21.70;99.90
19292;DHT22;9779;51.756;7.450;2022-08-02T09:10:34;21.90;99.90
19292;DHT22;9779;51.756;7.450;2022-08-02T09:13:20;22.00;99.90
19292;DHT22;9779;51.756;7.450;2022-08-02T09:15:59;22.20;99.90
19292;DHT22;9779;51.756;7.450;2022-08-02T09:18:29;22.40;99.90
19292;DHT22;9779;51.756;7.450;2022-08-02T09:21:00;22.50;99.90
19292;DHT22;9779;51.756;7.450;2022-08-02T09:23:39;22.60;99.90
19292;DHT22;9779;51.756;7.450;2022-08-02T09:26:07;22.80;99.90
19292;DHT22;9779;51.756;7.450;2022-08-02T09:28:39;22.90;99.90
19292;DHT22;9779;51.756;7.450;2022-08-02T09:33:35;23.10;99.90
19292;DHT22;9779;51.756;7.450;2022-08-02T09:36:03;23.30;99.90
19292;DHT22;9779;51.756;7.450;2022-08-02T09:38:30;23.50;99.90
19292;DHT22;9779;51.756;7.450;2022-08-02T09:40:58;23.70;99.90
19292;DHT22;9779;51.756;7.450;2022-08-02T09:43:40;23.80;99.90
19292;DHT22;9779;51.756;7.450;2022-08-02T09:46:26;23.90;99.90
19292;DHT22;9779;51.756;7.450;2022-08-02T09:48:54;24.10;99.90
19292;DHT22;9779;51.756;7.450;2022-08-02T09:51:27;24.20;99.90
19292;DHT22;9779;51.756;7.450;2022-08-02T09:53:57;24.30;99.90
19292;DHT22;9779;51.756;7.450;2022-08-02T09:56:24;24.40;99.90
19292;DHT22;9779;51.756;7.450;2022-08-02T09:58:51;24.60;99.90
19292;DHT22;9779;51.756;7.450;2022-08-02T10:01:20;24.80;99.90
19292;DHT22;9779;51.756;7.450;2022-08-02T10:04:00;24.80;99.90
19292;DHT22;9779;51.756;7.450;2022-08-02T10:06:26;24.90;99.90
19292;DHT22;9779;51.756;7.450;2022-08-02T10:08:52;24.80;99.90
19292;DHT22;9779;51.756;7.450;2022-08-02T10:11:22;25.00;99.90
19292;DHT22;9779;51.756;7.450;2022-08-02T10:13:49;25.00;99.90
19292;DHT22;9779;51.756;7.450;2022-08-02T10:16:17;24.80;99.90
19292;DHT22;9779;51.756;7.450;2022-08-02T10:18:44;24.80;99.90
19292;DHT22;9779;51.756;7.450;2022-08-02T10:21:57;25.00;99.90
19292;DHT22;9779;51.756;7.450;2022-08-02T10:24:13;25.10;99.90
19292;DHT22;9779;51.756;7.450;2022-08-02T10:26:42;25.20;99.90
19292;DHT22;9779;51.756;7.450;2022-08-02T10:29:09;25.50;99.90
19292;DHT22;9779;51.756;7.450;2022-08-02T10:31:42;25.70;99.90
19292;DHT22;9779;51.756;7.450;2022-08-02T10:34:15;25.70;99.90
19292;DHT22;9779;51.756;7.450;2022-08-02T10:36:42;25.70;99.90
19292;DHT22;9779;51.756;7.450;2022-08-02T10:39:09;25.70;99.90
19292;DHT22;9779;51.756;7.450;2022-08-02T10:44:26;25.80;99.90
19292;DHT22;9779;51.756;7.450;2022-08-02T10:47:17;25.70;99.90
19292;DHT22;9779;51.756;7.450;2022-08-02T10:49:53;25.90;99.90
19292;DHT22;9779;51.756;7.450;2022-08-02T10:52:21;26.20;99.90
19292;DHT22;9779;51.756;7.450;2022-08-02T10:54:50;26.20;99.90
19292;DHT22;9779;51.756;7.450;2022-08-02T10:57:20;26.10;99.90
19292;DHT22;9779;51.756;7.450;2022-08-02T10:59:48;26.10;99.90
19292;DHT22;9779;51.756;7.450;2022-08-02T11:02:36;26.20;99.90
19292;DHT22;9779;51.756;7.450;2022-08-02T11:07:38;26.70;99.90
19292;DHT22;9779;51.756;7.450;2022-08-02T11:13:06;26.90;99.90
19292;DHT22;9779;51.756;7.450;2022-08-02T11:15:53;27.20;99.90
19292;DHT22;9779;51.756;7.450;2022-08-02T11:18:20;27.30;99.90
19292;DHT22;9779;51.756;7.450;2022-08-02T11:20:46;27.40;99.90
19292;DHT22;9779;51.756;7.450;2022-08-02T11:23:38;27.20;99.90
19292;DHT22;9779;51.756;7.450;2022-08-02T11:28:55;27.00;99.90
19292;DHT22;9779;51.756;7.450;2022-08-02T11:31:20;27.00;99.90
19292;DHT22;9779;51.756;7.450;2022-08-02T11:33:49;27.30;99.90
19292;DHT22;9779;51.756;7.450;2022-08-02T11:36:16;27.50;99.90
19292;DHT22;9779;51.756;7.450;2022-08-02T11:38:42;27.50;99.90
19292;DHT22;9779;51.756;7.450;2022-08-02T11:41:08;27.50;99.90
19292;DHT22;9779;51.756;7.450;2022-08-02T11:43:34;27.80;99.90
19292;DHT22;9779;51.756;7.450;2022-08-02T11:46:04;28.10;99.90
19292;DHT22;9779;51.756;7.450;2022-08-02T11:48:37;28.10;99.90
19292;DHT22;9779;51.756;7.450;2022-08-02T11:51:05;28.20;99.90
19292;DHT22;9779;51.756;7.450;2022-08-02T11:53:39;28.20;99.90
19292;DHT22;9779;51.756;7.450;2022-08-02T11:56:06;28.10;99.90
19292;DHT22;9779;51.756;7.450;2022-08-02T11:58:31;28.00;99.90
19292;DHT22;9779;51.756;7.450;2022-08-02T12:00:57;27.90;99.90
19292;DHT22;9779;51.756;7.450;2022-08-02T12:03:23;27.90;99.90
19292;DHT22;9779;51.756;7.450;2022-08-02T12:05:49;28.10;99.90
19292;DHT22;9779;51.756;7.450;2022-08-02T12:08:14;28.20;99.90
19292;DHT22;9779;51.756;7.450;2022-08-02T12:10:49;28.00;99.90
19292;DHT22;9779;51.756;7.450;2022-08-02T12:13:15;28.30;99.90
19292;DHT22;9779;51.756;7.450;2022-08-02T12:15:43;28.30;99.90
19292;DHT22;9779;51.756;7.450;2022-08-02T12:18:17;28.20;99.90
19292;DHT22;9779;51.756;7.450;2022-08-02T12:21:03;28.20;99.90
19292;DHT22;9779;51.756;7.450;2022-08-02T12:23:29;28.40;99.90
19292;DHT22;9779;51.756;7.450;2022-08-02T12:26:07;28.60;99.90
19292;DHT22;9779;51.756;7.450;2022-08-02T12:28:35;29.00;99.90
19292;DHT22;9779;51.756;7.450;2022-08-02T12:31:04;29.10;99.20
19292;DHT22;9779;51.756;7.450;2022-08-02T12:33:51;29.10;99.30
19292;DHT22;9779;51.756;7.450;2022-08-02T12:36:22;29.20;99.60
19292;DHT22;9779;51.756;7.450;2022-08-02T12:38:59;29.30;99.00
19292;DHT22;9779;51.756;7.450;2022-08-02T12:41:26;29.50;98.30
19292;DHT22;9779;51.756;7.450;2022-08-02T12:43:54;29.70;98.20
19292;DHT22;9779;51.756;7.450;2022-08-02T12:46:21;29.80;97.70
19292;DHT22;9779;51.756;7.450;2022-08-02T12:48:47;29.60;97.00
19292;DHT22;9779;51.756;7.450;2022-08-02T12:51:24;29.40;98.00
19292;DHT22;9779;51.756;7.450;2022-08-02T12:53:54;29.50;98.80
19292;DHT22;9779;51.756;7.450;2022-08-02T12:56:37;29.40;97.60
19292;DHT22;9779;51.756;7.450;2022-08-02T12:59:03;29.30;97.20
19292;DHT22;9779;51.756;7.450;2022-08-02T13:01:29;29.40;97.70
19292;DHT22;9779;51.756;7.450;2022-08-02T13:03:55;29.30;97.40
19292;DHT22;9779;51.756;7.450;2022-08-02T13:06:21;29.30;96.70
19292;DHT22;9779;51.756;7.450;2022-08-02T13:08:47;29.40;97.50
19292;DHT22;9779;51.756;7.450;2022-08-02T13:11:13;29.40;95.80
19292;DHT22;9779;51.756;7.450;2022-08-02T13:13:39;29.50;96.20
19292;DHT22;9779;51.756;7.450;2022-08-02T13:16:05;29.60;95.10
19292;DHT22;9779;51.756;7.450;2022-08-02T13:18:30;29.70;94.00
19292;DHT22;9779;51.756;7.450;2022-08-02T13:20:56;29.50;94.20
19292;DHT22;9779;51.756;7.450;2022-08-02T13:23:22;29.70;94.50
19292;DHT22;9779;51.756;7.450;2022-08-02T13:25:49;29.80;94.40
19292;DHT22;9779;51.756;7.450;2022-08-02T13:28:15;29.50;92.70
19292;DHT22;9779;51.756;7.450;2022-08-02T13:30:40;29.50;93.90
19292;DHT22;9779;51.756;7.450;2022-08-02T13:33:06;29.60;93.50
19292;DHT22;9779;51.756;7.450;2022-08-02T13:35:31;29.60;94.00
19292;DHT22;9779;51.756;7.450;2022-08-02T13:37:57;29.90;92.70
19292;DHT22;9779;51.756;7.450;2022-08-02T13:40:22;29.80;92.00
19292;DHT22;9779;51.756;7.450;2022-08-02T13:42:48;29.90;92.80
19292;DHT22;9779;51.756;7.450;2022-08-02T13:45:14;30.10;92.40
19292;DHT22;9779;51.756;7.450;2022-08-02T13:47:41;30.60;91.70
19292;DHT22;9779;51.756;7.450;2022-08-02T13:50:07;30.80;92.40
19292;DHT22;9779;51.756;7.450;2022-08-02T13:52:33;30.90;90.30
19292;DHT22;9779;51.756;7.450;2022-08-02T13:54:59;30.70;88.90
19292;DHT22;9779;51.756;7.450;2022-08-02T13:57:24;30.80;90.00
19292;DHT22;9779;51.756;7.450;2022-08-02T13:59:50;30.90;87.30
19292;DHT22;9779;51.756;7.450;2022-08-02T14:02:16;31.00;87.30
19292;DHT22;9779;51.756;7.450;2022-08-02T14:04:42;31.20;86.50
19292;DHT22;9779;51.756;7.450;2022-08-02T14:07:07;31.10;83.00
19292;DHT22;9779;51.756;7.450;2022-08-02T14:09:33;30.90;82.50
19292;DHT22;9779;51.756;7.450;2022-08-02T14:12:01;31.00;82.70
19292;DHT22;9779;51.756;7.450;2022-08-02T14:14:27;31.00;83.30
19292;DHT22;9779;51.756;7.450;2022-08-02T14:16:52;31.20;86.50
19292;DHT22;9779;51.756;7.450;2022-08-02T14:19:18;31.60;83.80
19292;DHT22;9779;51.756;7.450;2022-08-02T14:21:46;31.70;82.10
19292;DHT22;9779;51.756;7.450;2022-08-02T14:24:12;31.60;78.50
19292;DHT22;9779;51.756;7.450;2022-08-02T14:26:37;31.20;78.30
19292;DHT22;9779;51.756;7.450;2022-08-02T14:29:03;31.30;80.70
19292;DHT22;9779;51.756;7.450;2022-08-02T14:31:29;31.70;78.30
19292;DHT22;9779;51.756;7.450;2022-08-02T14:33:54;31.60;77.10
19292;DHT22;9779;51.756;7.450;2022-08-02T14:36:20;31.50;77.00
19292;DHT22;9779;51.756;7.450;2022-08-02T14:38:46;31.70;77.20
19292;DHT22;9779;51.756;7.450;2022-08-02T14:41:11;31.90;78.90
19292;DHT22;9779;51.756;7.450;2022-08-02T14:43:37;32.20;77.60
19292;DHT22;9779;51.756;7.450;2022-08-02T14:46:21;32.30;76.80
19292;DHT22;9779;51.756;7.450;2022-08-02T14:48:46;31.80;74.50
19292;DHT22;9779;51.756;7.450;2022-08-02T14:51:12;31.90;75.30
19292;DHT22;9779;51.756;7.450;2022-08-02T14:53:39;32.20;75.70
19292;DHT22;9779;51.756;7.450;2022-08-02T14:56:05;32.10;74.80
19292;DHT22;9779;51.756;7.450;2022-08-02T14:58:30;32.60;74.70
19292;DHT22;9779;51.756;7.450;2022-08-02T15:00:56;32.70;72.50
19292;DHT22;9779;51.756;7.450;2022-08-02T15:03:21;32.40;73.90
19292;DHT22;9779;51.756;7.450;2022-08-02T15:05:47;32.60;74.30
19292;DHT22;9779;51.756;7.450;2022-08-02T15:08:12;32.30;73.60
19292;DHT22;9779;51.756;7.450;2022-08-02T15:10:38;32.20;72.30
19292;DHT22;9779;51.756;7.450;2022-08-02T15:13:04;32.40;73.40
19292;DHT22;9779;51.756;7.450;2022-08-02T15:15:30;32.40;72.80
19292;DHT22;9779;51.756;7.450;2022-08-02T15:17:56;32.60;73.90
19292;DHT22;9779;51.756;7.450;2022-08-02T15:20:22;32.80;72.50
19292;DHT22;9779;51.756;7.450;2022-08-02T15:22:47;32.80;71.70
19292;DHT22;9779;51.756;7.450;2022-08-02T15:25:13;32.80;69.80
19292;DHT22;9779;51.756;7.450;2022-08-02T15:27:38;32.90;69.00
19292;DHT22;9779;51.756;7.450;2022-08-02T15:30:04;32.80;72.00
19292;DHT22;9779;51.756;7.450;2022-08-02T15:32:30;32.80;69.90
19292;DHT22;9779;51.756;7.450;2022-08-02T15:34:55;32.80;69.70
19292;DHT22;9779;51.756;7.450;2022-08-02T15:37:21;32.70;68.30
19292;DHT22;9779;51.756;7.450;2022-08-02T15:39:46;32.60;69.30
19292;DHT22;9779;51.756;7.450;2022-08-02T15:42:12;32.30;68.40
19292;DHT22;9779;51.756;7.450;2022-08-02T15:44:38;32.50;68.70
19292;DHT22;9779;51.756;7.450;2022-08-02T15:47:05;32.30;69.20
19292;DHT22;9779;51.756;7.450;2022-08-02T15:49:31;32.30;68.30
19292;DHT22;9779;51.756;7.450;2022-08-02T15:51:56;32.50;69.30
19292;DHT22;9779;51.756;7.450;2022-08-02T15:54:22;32.80;67.10
19292;DHT22;9779;51.756;7.450;2022-08-02T15:56:47;32.70;67.10
19292;DHT22;9779;51.756;7.450;2022-08-02T15:59:13;32.80;68.80
19292;DHT22;9779;51.756;7.450;2022-08-02T16:01:39;33.00;68.30
19292;DHT22;9779;51.756;7.450;2022-08-02T16:04:05;33.00;65.80
19292;DHT22;9779;51.756;7.450;2022-08-02T16:06:31;33.00;66.90
19292;DHT22;9779;51.756;7.450;2022-08-02T16:08:56;32.80;67.60
19292;DHT22;9779;51.756;7.450;2022-08-02T16:11:22;33.00;68.80
19292;DHT22;9779;51.756;7.450;2022-08-02T16:13:48;33.40;65.70
19292;DHT22;9779;51.756;7.450;2022-08-02T16:16:21;33.60;64.30
19292;DHT22;9779;51.756;7.450;2022-08-02T16:18:46;33.60;65.40
19292;DHT22;9779;51.756;7.450;2022-08-02T16:21:12;33.70;65.90
19292;DHT22;9779;51.756;7.450;2022-08-02T16:23:38;33.70;64.20
19292;DHT22;9779;51.756;7.450;2022-08-02T16:26:03;33.50;63.90
19292;DHT22;9779;51.756;7.450;2022-08-02T16:28:29;33.40;65.60
19292;DHT22;9779;51.756;7.450;2022-08-02T16:30:54;33.30;63.40
19292;DHT22;9779;51.756;7.450;2022-08-02T16:33:20;33.30;63.30